(°C)
(°C)
SW
SW
W
WSW
WSW
W
WNW
(km/h)
7-19
4-10
3-8
3-7
3-6
3-7
4-8
(mm)
0
3
0
0
0
0
0
(%)
23
25
8
14
8
8
2

Wysokość słońca

/ 4.9°
sun-icon
UV 3
03:15
20:03
Sierp ubywający (291°)
01:55
12:36

METAR dla 55.61°N 49.28°E (UWKD)

Czas Warunki Temperatura/
Punkt rosy
Wiatr Widzialność Pogoda Chmury Ciśn. atm. Zmień Surowy
VFR 8°C / 2°C 290º 6kt >10km Light Showers Rain 3.00mm precipitation Vertical Visibility of 0ft. 1006 No Significant change. Runway 29: Damp, with <1mm, friction coefficient 0.60. UWKD 241600Z 29003MPS 9999 -SHRA BKN050CB 08/02 Q1006 R29/1/0060 NOSIG RMK QFE743/0991
VFR 9°C / 2°C 290º 8kt >10km - Scattered Clouds 5000ft 1006 No Significant change. Runway 29: Damp, with <1mm, friction coefficient 0.60. UWKD 241530Z 29004MPS 9999 SCT050CB 09/02 Q1006 R29/1/0060 NOSIG RMK QFE743/0991
VFR 9°C / 1°C 260º 8kt >10km - Scattered Clouds 5000ft 1005 No Significant change. Runway 29: Damp, with <1mm, friction coefficient 0.60. UWKD 241500Z 26004MPS 9999 SCT050CB 09/01 Q1005 R29/1/0060 NOSIG RMK QFE743/0991
VFR 9°C / 2°C 260º 8kt >10km - Scattered Clouds 5000ft 1005 No Significant change. Runway 29: Damp, with <1mm, friction coefficient 0.60. UWKD 241430Z 26004MPS 9999 SCT050CB 09/02 Q1005 R29/1/0060 NOSIG RMK QFE743/0990
VFR 9°C / 2°C 280º 10kt >10km - Scattered Clouds 5000ft 1005 No Significant change. Runway 29: Damp, with <1mm, friction coefficient 0.60. UWKD 241400Z 28005MPS 9999 SCT050CB 09/02 Q1005 R29/1/0060 NOSIG RMK QFE743/0991
VFR 10°C / 2°C 280º 10kt >10km - Scattered Clouds 5000ft 1005 No Significant change. Runway 29: Damp, with <1mm, friction coefficient 0.60. UWKD 241330Z 28005MPS 9999 SCT050CB 10/02 Q1005 R29/1/0060 NOSIG RMK QFE743/0990
VFR 10°C / 3°C 310º variable 280º to 360º 10kt >10km - Broken Clouds 5000ft 1005 No Significant change. Runway 29: Damp, with <1mm, friction coefficient 0.60. UWKD 241300Z 31005MPS 280V360 9999 BKN050CB 10/03 Q1005 R29/1/0060 NOSIG RMK QFE742/0990
VFR 10°C / 3°C 240º variable 200º to 310º 10kt >10km Light Showers Rain 3.00mm precipitation Vertical Visibility of 0ft. 1004 No Significant change. Runway 29: Damp, with <1mm, friction coefficient 0.60. UWKD 241230Z 24005MPS 200V310 9999 -SHRA BKN050CB 10/03 Q1004 R29/1/0060 NOSIG RMK QFE742/0990
VFR 11°C / 1°C 240º variable 200º to 290º 6kt >10km - Broken Clouds 4700ft 1004 No Significant change. Runway 29: Damp, with <1mm, friction coefficient 0.60. UWKD 241200Z 24003MPS 200V290 9999 BKN047CB 11/01 Q1004 R29/1/0060 NOSIG RMK QFE742/0989
VFR 11°C / 1°C 280º 6kt. Wind Shear present on Runway 29. >10km - Scattered Clouds 5000ft 1004 No Significant change. Runway 29: Damp, with <1mm, friction coefficient 0.60. UWKD 241130Z 28003MPS 9999 SCT050CB 11/01 Q1004 WS R29 R29/1/0060 NOSIG RMK QFE742/0989
VFR 11°C / 1°C 290º variable 250º to 310º 10kt. Wind Shear present on Runway 29. >10km - Broken Clouds 5000ft 1004 No Significant change. Runway 29: Damp, with <1mm, friction coefficient 0.60. UWKD 241100Z 29005MPS 250V310 9999 BKN050CB 11/01 Q1004 WS R29 R29/1/0060 NOSIG RMK QFE742/0989
VFR 11°C / 0°C 230º variable 190º to 270º 8kt. Wind Shear present on Runway 29. >10km - Broken Clouds 5000ft 1003 No Significant change. Runway 29: Damp, with <1mm, friction coefficient 0.60. UWKD 241030Z 23004MPS 190V270 9999 BKN050CB 11/00 Q1003 WS R29 R29/1/0060 NOSIG RMK QFE741/0989
VFR 12°C / 0°C 160º variable 140º to 220º 10kt. Wind Shear present on Runway 29. >10km - Broken Clouds 5000ft 1003 No Significant change. Runway 29: Damp, with <1mm, friction coefficient 0.60. UWKD 241000Z 16005MPS 140V220 9999 BKN050CB 12/M00 Q1003 WS R29 R29/1/0060 NOSIG RMK QFE741/0988
VFR 12°C / 1°C 250º 16kt Gust 25kt >10km - Scattered Clouds 5000ft 1002 No Significant change. Runway 29: Damp, with <1mm, friction coefficient 0.60. UWKD 240930Z 25008G13MPS 9999 SCT050CB 12/01 Q1002 R29/1/0060 NOSIG RMK QFE741/0988
VFR 12°C / 2°C 260º 14kt >10km - Scattered Clouds 5000ft 1002 No Significant change. Runway 29: Damp, with <1mm, friction coefficient 0.60. UWKD 240900Z 26007MPS 9999 SCT050CB 12/02 Q1002 R29/1/0060 NOSIG RMK QFE741/0988
VFR 12°C / 2°C 270º variable 240º to 300º 12kt >10km - Scattered Clouds 5000ft 1002 No Significant change. Runway 29: Damp, with <1mm, friction coefficient 0.60. UWKD 240830Z 27006MPS 240V300 9999 SCT050CB 12/02 Q1002 R29/1/0060 NOSIG RMK QFE741/0988
VFR 11°C / 3°C 290º 12kt >10km - Broken Clouds 5000ft 1002 No Significant change. Runway 29: Damp, with <1mm, friction coefficient 0.60. UWKD 240800Z 29006MPS 9999 BKN050CB 11/03 Q1002 R29/1/0060 NOSIG RMK QFE741/0988
VFR 10°C / 2°C 260º 8kt >10km - Broken Clouds 3700ft 1002 No Significant change. Runway 29: Damp, with <1mm, friction coefficient 0.60. UWKD 240730Z 26004MPS 9999 BKN037CB 10/02 Q1002 R29/1/0060 NOSIG RMK QFE740/0987
VFR 10°C / 4°C 240º variable 180º to 280º 6kt >10km Light Showers Rain 3.00mm precipitation Vertical Visibility of 0ft. 1002 No Significant change. Runway 29: Damp, with <1mm, friction coefficient 0.60. UWKD 240700Z 24003MPS 180V280 9999 -SHRA BKN034CB 10/04 Q1002 R29/1/0060 NOSIG RMK QFE741/0988
VFR 10°C / 3°C 180º 10kt >10km - Scattered Clouds 3300ft 1002 No Significant change. Runway 11: Damp, with <1mm, friction coefficient 0.60. UWKD 240630Z 18005MPS 9999 SCT033CB 10/03 Q1002 R11/1/0060 NOSIG RMK QFE741/0988
MVFR 10°C / 2°C 160º variable 130º to 190º 10kt >10km - Broken Clouds 3000ft 1002 No Significant change. Runway 11: Damp, with <1mm, friction coefficient 0.60. UWKD 240600Z 16005MPS 130V190 9999 BKN030CB 10/02 Q1002 R11/1/0060 NOSIG RMK QFE741/0988
MVFR 8°C / 2°C 170º 8kt >10km - Broken Clouds 2800ft 1002 No Significant change. Runway 11: Damp, with <1mm, friction coefficient 0.60. UWKD 240530Z 17004MPS 9999 BKN028CB 08/02 Q1002 R11/1/0060 NOSIG RMK QFE742/0989
VFR 7°C / 1°C 200º variable 170º to 240º 10kt >10km - Broken Clouds 3100ft 1002 No Significant change UWKD 240500Z 20005MPS 170V240 9999 BKN031CB 07/01 Q1002 R11/CLRD70 NOSIG RMK QFE742/0989
VFR 7°C / 1°C 190º variable 150º to 220º 8kt >10km - Clouds and Visibility OK 1002 No Significant change UWKD 240430Z 19004MPS 150V220 CAVOK 07/01 Q1002 R29/CLRD70 NOSIG RMK QFE741/0988

VFR

8°C / 2°C

[Więcej]
Wiatr 290º 6kt
Widzialność >10km
Pogoda Light Showers Rain 3.00mm precipitation
Chmury Vertical Visibility of 0ft.
Ciśn. atm. 1006
Zmień No Significant change. Runway 29: Damp, with <1mm, friction coefficient 0.60.
Surowy UWKD 241600Z 29003MPS 9999 -SHRA BKN050CB 08/02 Q1006 R29/1/0060 NOSIG RMK QFE743/0991

VFR

9°C / 2°C

[Więcej]
Wiatr 290º 8kt
Widzialność >10km
Pogoda -
Chmury Scattered Clouds 5000ft
Ciśn. atm. 1006
Zmień No Significant change. Runway 29: Damp, with <1mm, friction coefficient 0.60.
Surowy UWKD 241530Z 29004MPS 9999 SCT050CB 09/02 Q1006 R29/1/0060 NOSIG RMK QFE743/0991

VFR

9°C / 1°C

[Więcej]
Wiatr 260º 8kt
Widzialność >10km
Pogoda -
Chmury Scattered Clouds 5000ft
Ciśn. atm. 1005
Zmień No Significant change. Runway 29: Damp, with <1mm, friction coefficient 0.60.
Surowy UWKD 241500Z 26004MPS 9999 SCT050CB 09/01 Q1005 R29/1/0060 NOSIG RMK QFE743/0991

VFR

9°C / 2°C

[Więcej]
Wiatr 260º 8kt
Widzialność >10km
Pogoda -
Chmury Scattered Clouds 5000ft
Ciśn. atm. 1005
Zmień No Significant change. Runway 29: Damp, with <1mm, friction coefficient 0.60.
Surowy UWKD 241430Z 26004MPS 9999 SCT050CB 09/02 Q1005 R29/1/0060 NOSIG RMK QFE743/0990

VFR

9°C / 2°C

[Więcej]
Wiatr 280º 10kt
Widzialność >10km
Pogoda -
Chmury Scattered Clouds 5000ft
Ciśn. atm. 1005
Zmień No Significant change. Runway 29: Damp, with <1mm, friction coefficient 0.60.
Surowy UWKD 241400Z 28005MPS 9999 SCT050CB 09/02 Q1005 R29/1/0060 NOSIG RMK QFE743/0991

VFR

10°C / 2°C

[Więcej]
Wiatr 280º 10kt
Widzialność >10km
Pogoda -
Chmury Scattered Clouds 5000ft
Ciśn. atm. 1005
Zmień No Significant change. Runway 29: Damp, with <1mm, friction coefficient 0.60.
Surowy UWKD 241330Z 28005MPS 9999 SCT050CB 10/02 Q1005 R29/1/0060 NOSIG RMK QFE743/0990

VFR

10°C / 3°C

[Więcej]
Wiatr 310º variable 280º to 360º 10kt
Widzialność >10km
Pogoda -
Chmury Broken Clouds 5000ft
Ciśn. atm. 1005
Zmień No Significant change. Runway 29: Damp, with <1mm, friction coefficient 0.60.
Surowy UWKD 241300Z 31005MPS 280V360 9999 BKN050CB 10/03 Q1005 R29/1/0060 NOSIG RMK QFE742/0990

VFR

10°C / 3°C

[Więcej]
Wiatr 240º variable 200º to 310º 10kt
Widzialność >10km
Pogoda Light Showers Rain 3.00mm precipitation
Chmury Vertical Visibility of 0ft.
Ciśn. atm. 1004
Zmień No Significant change. Runway 29: Damp, with <1mm, friction coefficient 0.60.
Surowy UWKD 241230Z 24005MPS 200V310 9999 -SHRA BKN050CB 10/03 Q1004 R29/1/0060 NOSIG RMK QFE742/0990

VFR

11°C / 1°C

[Więcej]
Wiatr 240º variable 200º to 290º 6kt
Widzialność >10km
Pogoda -
Chmury Broken Clouds 4700ft
Ciśn. atm. 1004
Zmień No Significant change. Runway 29: Damp, with <1mm, friction coefficient 0.60.
Surowy UWKD 241200Z 24003MPS 200V290 9999 BKN047CB 11/01 Q1004 R29/1/0060 NOSIG RMK QFE742/0989

VFR

11°C / 1°C

[Więcej]
Wiatr 280º 6kt. Wind Shear present on Runway 29.
Widzialność >10km
Pogoda -
Chmury Scattered Clouds 5000ft
Ciśn. atm. 1004
Zmień No Significant change. Runway 29: Damp, with <1mm, friction coefficient 0.60.
Surowy UWKD 241130Z 28003MPS 9999 SCT050CB 11/01 Q1004 WS R29 R29/1/0060 NOSIG RMK QFE742/0989

VFR

11°C / 1°C

[Więcej]
Wiatr 290º variable 250º to 310º 10kt. Wind Shear present on Runway 29.
Widzialność >10km
Pogoda -
Chmury Broken Clouds 5000ft
Ciśn. atm. 1004
Zmień No Significant change. Runway 29: Damp, with <1mm, friction coefficient 0.60.
Surowy UWKD 241100Z 29005MPS 250V310 9999 BKN050CB 11/01 Q1004 WS R29 R29/1/0060 NOSIG RMK QFE742/0989

VFR

11°C / 0°C

[Więcej]
Wiatr 230º variable 190º to 270º 8kt. Wind Shear present on Runway 29.
Widzialność >10km
Pogoda -
Chmury Broken Clouds 5000ft
Ciśn. atm. 1003
Zmień No Significant change. Runway 29: Damp, with <1mm, friction coefficient 0.60.
Surowy UWKD 241030Z 23004MPS 190V270 9999 BKN050CB 11/00 Q1003 WS R29 R29/1/0060 NOSIG RMK QFE741/0989

VFR

12°C / 0°C

[Więcej]
Wiatr 160º variable 140º to 220º 10kt. Wind Shear present on Runway 29.
Widzialność >10km
Pogoda -
Chmury Broken Clouds 5000ft
Ciśn. atm. 1003
Zmień No Significant change. Runway 29: Damp, with <1mm, friction coefficient 0.60.
Surowy UWKD 241000Z 16005MPS 140V220 9999 BKN050CB 12/M00 Q1003 WS R29 R29/1/0060 NOSIG RMK QFE741/0988

VFR

12°C / 1°C

[Więcej]
Wiatr 250º 16kt Gust 25kt
Widzialność >10km
Pogoda -
Chmury Scattered Clouds 5000ft
Ciśn. atm. 1002
Zmień No Significant change. Runway 29: Damp, with <1mm, friction coefficient 0.60.
Surowy UWKD 240930Z 25008G13MPS 9999 SCT050CB 12/01 Q1002 R29/1/0060 NOSIG RMK QFE741/0988

VFR

12°C / 2°C

[Więcej]
Wiatr 260º 14kt
Widzialność >10km
Pogoda -
Chmury Scattered Clouds 5000ft
Ciśn. atm. 1002
Zmień No Significant change. Runway 29: Damp, with <1mm, friction coefficient 0.60.
Surowy UWKD 240900Z 26007MPS 9999 SCT050CB 12/02 Q1002 R29/1/0060 NOSIG RMK QFE741/0988

VFR

12°C / 2°C

[Więcej]
Wiatr 270º variable 240º to 300º 12kt
Widzialność >10km
Pogoda -
Chmury Scattered Clouds 5000ft
Ciśn. atm. 1002
Zmień No Significant change. Runway 29: Damp, with <1mm, friction coefficient 0.60.
Surowy UWKD 240830Z 27006MPS 240V300 9999 SCT050CB 12/02 Q1002 R29/1/0060 NOSIG RMK QFE741/0988

VFR

11°C / 3°C

[Więcej]
Wiatr 290º 12kt
Widzialność >10km
Pogoda -
Chmury Broken Clouds 5000ft
Ciśn. atm. 1002
Zmień No Significant change. Runway 29: Damp, with <1mm, friction coefficient 0.60.
Surowy UWKD 240800Z 29006MPS 9999 BKN050CB 11/03 Q1002 R29/1/0060 NOSIG RMK QFE741/0988

VFR

10°C / 2°C

[Więcej]
Wiatr 260º 8kt
Widzialność >10km
Pogoda -
Chmury Broken Clouds 3700ft
Ciśn. atm. 1002
Zmień No Significant change. Runway 29: Damp, with <1mm, friction coefficient 0.60.
Surowy UWKD 240730Z 26004MPS 9999 BKN037CB 10/02 Q1002 R29/1/0060 NOSIG RMK QFE740/0987

VFR

10°C / 4°C

[Więcej]
Wiatr 240º variable 180º to 280º 6kt
Widzialność >10km
Pogoda Light Showers Rain 3.00mm precipitation
Chmury Vertical Visibility of 0ft.
Ciśn. atm. 1002
Zmień No Significant change. Runway 29: Damp, with <1mm, friction coefficient 0.60.
Surowy UWKD 240700Z 24003MPS 180V280 9999 -SHRA BKN034CB 10/04 Q1002 R29/1/0060 NOSIG RMK QFE741/0988

VFR

10°C / 3°C

[Więcej]
Wiatr 180º 10kt
Widzialność >10km
Pogoda -
Chmury Scattered Clouds 3300ft
Ciśn. atm. 1002
Zmień No Significant change. Runway 11: Damp, with <1mm, friction coefficient 0.60.
Surowy UWKD 240630Z 18005MPS 9999 SCT033CB 10/03 Q1002 R11/1/0060 NOSIG RMK QFE741/0988

MVFR

10°C / 2°C

[Więcej]
Wiatr 160º variable 130º to 190º 10kt
Widzialność >10km
Pogoda -
Chmury Broken Clouds 3000ft
Ciśn. atm. 1002
Zmień No Significant change. Runway 11: Damp, with <1mm, friction coefficient 0.60.
Surowy UWKD 240600Z 16005MPS 130V190 9999 BKN030CB 10/02 Q1002 R11/1/0060 NOSIG RMK QFE741/0988

MVFR

8°C / 2°C

[Więcej]
Wiatr 170º 8kt
Widzialność >10km
Pogoda -
Chmury Broken Clouds 2800ft
Ciśn. atm. 1002
Zmień No Significant change. Runway 11: Damp, with <1mm, friction coefficient 0.60.
Surowy UWKD 240530Z 17004MPS 9999 BKN028CB 08/02 Q1002 R11/1/0060 NOSIG RMK QFE742/0989

VFR

7°C / 1°C

[Więcej]
Wiatr 200º variable 170º to 240º 10kt
Widzialność >10km
Pogoda -
Chmury Broken Clouds 3100ft
Ciśn. atm. 1002
Zmień No Significant change
Surowy UWKD 240500Z 20005MPS 170V240 9999 BKN031CB 07/01 Q1002 R11/CLRD70 NOSIG RMK QFE742/0989

VFR

7°C / 1°C

[Więcej]
Wiatr 190º variable 150º to 220º 8kt
Widzialność >10km
Pogoda -
Chmury Clouds and Visibility OK
Ciśn. atm. 1002
Zmień No Significant change
Surowy UWKD 240430Z 19004MPS 150V220 CAVOK 07/01 Q1002 R29/CLRD70 NOSIG RMK QFE741/0988

TAF dla 55.61°N 49.28°E (UWKD)

From till


Maximum Temperature 11ºC on . Minimum Temperature 2ºC on .
From till Wind 260º 10kt. Gust 23kt. Visibility 10km or more. Broken Clouds 1600ft.
Becoming from till Wind 100º 6kt. Visibility 10km or more. Broken Clouds 1600ft.
Temporarly from till Visibility 498.895m. Fog . Obscured Sky.
Becoming from till Wind 330º 10kt. Visibility 10km or more. Broken Clouds 1600ft.
Temporarly from till Visibility 6000m. Light Showers Rain . Broken Clouds 2000ft.

Surowy: TAF UWKD 241355Z 2415/2515 26005G12MPS 9999 BKN016 TX11/2512Z TN02/2501Z BECMG 2416/2418 10003MPS TEMPO 2421/2502 0500 FG VV003 BECMG 2506/2508 33005MPS TEMPO 2509/2515 6000 -SHRA BKN020CB

Radar i prognoza opadów na teraz dla 55.61°N 49.28°E

Mżawka
Lekkie
Umiarkowane
Intensywne
Bardzo Intensywne
Grad

Wskaźnik lokalizacji jest umieszczony na 55.61°N 49.28°E. Animacja przedstawia radar opadów dla ostatniej godziny, jak również 1h prognozę pogody. Mżawka i lekkie opady mogą być niewidoczne na radarze. Intensywność opadów jest oznaczona kolorami od jasnoniebieskiego do ciemnofioletowego.

Aktualne zdjęcia satelitarne i zdjęcia opadów deszczu dla 55.61°N 49.28°E

Wskaźnik lokalizacji znajduje się na 55.61°N 49.28°E. [Więcej]

Obraz satelitarny w czasie rzeczywistym łączy światło widzialne w ciągu dnia z promieniowaniem podczerwonym w nocy. W nocy obraz nie jest ciemny, ponieważ promieniowanie podczerwone może wykrywać różnice temperatur. Niestety niskie chmury i mgłę trudno odróżnić od temperatury gruntu, przez co mogą być prawie niewidoczne w nocy. Zdjęcia satelitarne Meteosat dla Europy są aktualizowane w czasie rzeczywistym co 5 minut. Obrazy GOES-16/GOES-17 (Ameryka Północna i Południowa) oraz Himawari (Azja) są aktualizowane co 10 minut.

Prawa autorskie 2022 EUMETSAT / meteoblue. / Prawa autorskie 2022 meteoblue

Powrót do góry